createdAt,value
2018-05-23T00:03:00.305Z,6.00
2018-05-23T00:06:09.960Z,5.82
2018-05-23T00:09:21.064Z,5.62
2018-05-23T00:12:30.960Z,5.28
2018-05-23T00:15:44.856Z,6.03
2018-05-23T00:18:54.355Z,6.18
2018-05-23T00:22:03.909Z,5.75
2018-05-23T00:25:13.477Z,5.50
2018-05-23T00:28:23.795Z,5.85
2018-05-23T00:31:33.390Z,5.37
2018-05-23T00:34:43.696Z,5.80
2018-05-23T00:37:53.061Z,6.15
2018-05-23T00:41:02.508Z,6.35
2018-05-23T00:44:12.050Z,5.55
2018-05-23T00:47:21.728Z,5.70
2018-05-23T00:50:32.614Z,6.40
2018-05-23T00:53:41.891Z,6.07
2018-05-23T00:56:54.202Z,5.50
2018-05-23T01:00:04.028Z,5.97
2018-05-23T01:03:13.411Z,6.55
2018-05-23T01:06:25.038Z,6.15
2018-05-23T01:09:35.517Z,6.35
2018-05-23T01:12:45.004Z,6.78
2018-05-23T01:15:54.449Z,6.90
2018-05-23T01:19:04.064Z,6.97
2018-05-23T01:22:14.780Z,6.57
2018-05-23T01:25:26.197Z,6.70
2018-05-23T01:28:36.202Z,7.18
2018-05-23T01:31:47.096Z,6.40
2018-05-23T01:34:56.529Z,6.95
2018-05-23T01:38:06.032Z,6.45
2018-05-23T01:41:16.392Z,5.82
2018-05-23T01:44:27.847Z,5.95
2018-05-23T01:47:37.654Z,7.03
2018-05-23T01:50:47.169Z,6.82
2018-05-23T01:54:01.587Z,7.30
2018-05-23T01:57:10.995Z,6.90
2018-05-23T02:00:21.328Z,7.23
2018-05-23T02:03:30.801Z,7.53
2018-05-23T02:06:40.209Z,7.93
2018-05-23T02:09:50.409Z,7.65
2018-05-23T02:12:59.988Z,7.83
2018-05-23T02:16:09.649Z,8.25
2018-05-23T02:19:19.031Z,8.05
2018-05-23T02:22:29.679Z,7.87
2018-05-23T02:25:39.332Z,8.33
2018-05-23T02:28:48.903Z,7.75
2018-05-23T02:31:59.454Z,8.17
2018-05-23T02:35:09.709Z,8.70
2018-05-23T02:38:20.050Z,8.23
2018-05-23T02:41:30.644Z,9.38
2018-05-23T02:44:40.081Z,9.25
2018-05-23T02:47:51.254Z,9.57
2018-05-23T02:51:01.229Z,10.38
2018-05-23T02:54:10.656Z,9.77
2018-05-23T02:57:20.280Z,10.00
2018-05-23T03:00:31.596Z,9.32
2018-05-23T03:03:41.419Z,9.23
2018-05-23T03:06:50.869Z,10.07
2018-05-23T03:10:00.418Z,10.60
2018-05-23T03:13:14.948Z,10.30
2018-05-23T03:16:24.329Z,10.73
2018-05-23T03:19:33.840Z,11.02
2018-05-23T03:22:43.424Z,11.57
2018-05-23T03:25:53.772Z,11.23
2018-05-23T03:29:03.624Z,11.02
2018-05-23T03:32:13.542Z,11.02
2018-05-23T03:35:27.330Z,11.77
2018-05-23T03:38:38.413Z,11.35
2018-05-23T03:41:48.128Z,10.70
2018-05-23T03:44:57.754Z,11.48
2018-05-23T03:48:07.129Z,11.63
2018-05-23T03:51:17.602Z,11.85
2018-05-23T03:54:26.906Z,10.67
2018-05-23T03:57:41.101Z,11.53
2018-05-23T04:01:09.081Z,11.93
2018-05-23T04:04:36.220Z,11.43
2018-05-23T04:07:45.713Z,11.18
2018-05-23T04:10:55.912Z,11.95
2018-05-23T04:14:05.674Z,11.60
2018-05-23T04:17:15.297Z,10.20
2018-05-23T04:20:25.328Z,11.32
2018-05-23T04:23:37.206Z,11.70
2018-05-23T04:26:49.746Z,11.32
2018-05-23T04:29:59.742Z,11.85
2018-05-23T04:33:10.359Z,11.47
2018-05-23T04:36:20.781Z,12.40
2018-05-23T04:39:30.359Z,12.05
2018-05-23T04:42:39.816Z,11.23
2018-05-23T04:45:49.353Z,12.05
2018-05-23T04:48:58.673Z,12.13
2018-05-23T04:52:08.193Z,12.00
2018-05-23T04:55:19.536Z,12.13
2018-05-23T04:58:29.828Z,12.43
2018-05-23T05:01:39.214Z,11.45
2018-05-23T05:04:48.724Z,12.07
2018-05-23T05:07:59.331Z,11.40
2018-05-23T05:11:08.923Z,11.32
2018-05-23T05:14:18.287Z,11.17
2018-05-23T05:17:31.700Z,11.80
2018-05-23T05:20:46.160Z,12.13
2018-05-23T05:23:55.908Z,11.88
2018-05-23T05:27:05.796Z,11.07
2018-05-23T05:30:15.746Z,11.60
2018-05-23T05:33:25.681Z,10.98
2018-05-23T05:36:35.581Z,11.57
2018-05-23T05:39:45.108Z,11.55
2018-05-23T05:42:56.228Z,11.43
2018-05-23T05:46:05.651Z,10.83
2018-05-23T05:49:15.800Z,10.77
2018-05-23T05:52:29.573Z,11.30
2018-05-23T05:55:42.180Z,11.15
2018-05-23T05:58:51.984Z,10.67
2018-05-23T06:02:01.485Z,10.95
2018-05-23T06:05:11.210Z,11.30
2018-05-23T06:08:20.720Z,10.73
2018-05-23T06:11:30.924Z,9.98
2018-05-23T06:14:42.540Z,10.00
2018-05-23T06:17:52.485Z,9.88
2018-05-23T06:21:01.983Z,10.50
2018-05-23T06:24:12.228Z,9.43
2018-05-23T06:27:22.333Z,9.82
2018-05-23T06:30:34.247Z,9.20
2018-05-23T06:33:44.632Z,10.07
2018-05-23T06:36:53.854Z,10.50
2018-05-23T06:40:04.279Z,9.80
2018-05-23T06:43:13.867Z,9.43
2018-05-23T06:46:24.029Z,9.75
2018-05-23T06:49:34.392Z,10.02
2018-05-23T06:52:44.713Z,9.77
2018-05-23T06:55:54.989Z,9.20
2018-05-23T06:59:05.254Z,8.88
2018-05-23T07:02:14.731Z,8.25
2018-05-23T07:05:24.187Z,8.40
2018-05-23T07:08:34.302Z,8.45
2018-05-23T07:11:46.896Z,8.23
2018-05-23T07:14:56.436Z,7.82
2018-05-23T07:18:06.108Z,7.65
2018-05-23T07:21:16.529Z,7.40
2018-05-23T07:24:26.017Z,7.82
2018-05-23T07:27:36.260Z,8.13
2018-05-23T07:30:47.230Z,7.43
2018-05-23T07:33:56.777Z,7.32
2018-05-23T07:37:06.277Z,7.47
2018-05-23T07:40:16.409Z,8.32
2018-05-23T07:43:25.815Z,7.60
2018-05-23T07:46:35.953Z,6.97
2018-05-23T07:49:47.662Z,7.45
2018-05-23T07:52:57.093Z,6.93
2018-05-23T07:56:06.566Z,6.93
2018-05-23T07:59:16.030Z,6.80
2018-05-23T08:02:26.358Z,6.93
2018-05-23T08:05:36.849Z,6.00
2018-05-23T08:08:48.169Z,6.62
2018-05-23T08:11:57.728Z,6.50
2018-05-23T08:15:07.221Z,6.15
2018-05-23T08:18:16.609Z,6.37
2018-05-23T08:21:26.881Z,5.70
2018-05-23T08:24:36.750Z,6.05
2018-05-23T08:27:46.443Z,5.70
2018-05-23T08:30:55.726Z,6.20
2018-05-23T08:34:05.672Z,6.10
2018-05-23T08:37:15.252Z,6.28
2018-05-23T08:40:25.361Z,5.55
2018-05-23T08:43:35.636Z,5.35
2018-05-23T08:46:45.511Z,5.40
2018-05-23T08:49:56.088Z,5.85
2018-05-23T08:53:05.477Z,4.75
2018-05-23T08:56:15.073Z,4.25
2018-05-23T08:59:24.529Z,4.10
2018-05-23T09:02:34.048Z,4.40
2018-05-23T09:05:44.392Z,4.35
2018-05-23T09:08:54.308Z,4.35
2018-05-23T09:12:03.872Z,4.30
2018-05-23T09:15:13.415Z,4.18
2018-05-23T09:18:23.681Z,3.97
2018-05-23T09:21:33.734Z,4.03
2018-05-23T09:24:43.200Z,4.18
2018-05-23T09:27:53.478Z,4.20
2018-05-23T09:31:02.987Z,4.65
2018-05-23T09:34:12.483Z,4.35
2018-05-23T09:37:23.098Z,5.15
2018-05-23T09:40:33.339Z,4.80
2018-05-23T09:43:43.050Z,4.55
2018-05-23T09:46:53.467Z,4.47
2018-05-23T09:50:03.732Z,4.20
2018-05-23T09:53:13.522Z,4.57
2018-05-23T09:56:22.989Z,4.30
2018-05-23T09:59:32.984Z,4.12
2018-05-23T10:02:43.237Z,4.25
2018-05-23T10:05:53.960Z,4.10
2018-05-23T10:09:07.024Z,4.00
2018-05-23T10:12:16.468Z,3.70
2018-05-23T10:15:26.036Z,4.00
2018-05-23T10:18:35.581Z,4.30
2018-05-23T10:21:45.852Z,4.22
2018-05-23T10:24:56.084Z,4.25
2018-05-23T10:28:05.947Z,3.30
2018-05-23T10:31:15.472Z,4.05
2018-05-23T10:34:24.949Z,3.67
2018-05-23T10:37:34.352Z,4.43
2018-05-23T10:40:44.206Z,4.25
2018-05-23T10:43:55.920Z,3.58
2018-05-23T10:47:06.249Z,4.00
2018-05-23T10:50:15.752Z,4.62
2018-05-23T10:53:29.335Z,3.62
2018-05-23T10:56:38.790Z,3.83
2018-05-23T10:59:48.476Z,4.40
2018-05-23T11:02:57.989Z,4.75
2018-05-23T11:06:07.638Z,4.07
2018-05-23T11:09:17.589Z,5.18
2018-05-23T11:12:27.951Z,5.15
2018-05-23T11:15:38.922Z,4.12
2018-05-23T11:18:48.792Z,4.47
2018-05-23T11:21:59.033Z,4.20
2018-05-23T11:25:12.710Z,3.92
2018-05-23T11:28:22.053Z,4.30
2018-05-23T11:31:31.628Z,4.28
2018-05-23T11:34:41.200Z,4.12
2018-05-23T11:37:50.837Z,3.83
2018-05-23T11:41:01.522Z,4.25
2018-05-23T11:44:10.917Z,4.15
2018-05-23T11:47:20.493Z,3.90
2018-05-23T11:50:30.389Z,4.32
2018-05-23T11:53:41.138Z,4.30
2018-05-23T11:56:50.453Z,4.28
2018-05-23T12:00:00.709Z,4.12
2018-05-23T12:03:10.164Z,4.57
2018-05-23T12:06:19.670Z,4.70
2018-05-23T12:09:29.149Z,4.43
2018-05-23T12:12:38.656Z,4.55
2018-05-23T12:15:49.129Z,4.43
2018-05-23T12:19:00.357Z,4.20
2018-05-23T12:22:09.858Z,3.75
2018-05-23T12:25:20.489Z,4.20
2018-05-23T12:28:29.925Z,4.10
2018-05-23T12:31:39.460Z,3.78
2018-05-23T12:34:48.973Z,4.05
2018-05-23T12:37:59.393Z,3.53
2018-05-23T12:41:08.895Z,4.12
2018-05-23T12:44:18.334Z,4.37
2018-05-23T12:47:27.959Z,4.47
2018-05-23T12:50:37.472Z,3.92
2018-05-23T12:53:47.521Z,3.28
2018-05-23T12:56:57.801Z,3.33
2018-05-23T13:00:08.112Z,3.20
2018-05-23T13:03:18.221Z,3.35
2018-05-23T13:06:27.583Z,3.75
2018-05-23T13:09:36.986Z,3.97
2018-05-23T13:12:46.760Z,3.12
2018-05-23T13:15:57.033Z,3.80
2018-05-23T13:19:06.452Z,3.40
2018-05-23T13:22:16.173Z,3.22
2018-05-23T13:25:27.295Z,3.60
2018-05-23T13:28:41.371Z,3.28
2018-05-23T13:31:50.675Z,3.05
2018-05-23T13:35:00.159Z,3.33
2018-05-23T13:38:09.620Z,2.60
2018-05-23T13:41:19.216Z,2.90
2018-05-23T13:44:28.849Z,3.03
2018-05-23T13:47:39.212Z,2.83
2018-05-23T13:50:49.061Z,2.80
2018-05-23T13:53:58.932Z,2.75
2018-05-23T13:57:08.428Z,2.65
2018-05-23T14:00:17.907Z,2.85
2018-05-23T14:03:27.398Z,2.95
2018-05-23T14:06:36.844Z,2.72
2018-05-23T14:09:46.396Z,2.80
2018-05-23T14:12:55.852Z,2.30
2018-05-23T14:16:07.340Z,2.70
2018-05-23T14:19:16.845Z,2.67
2018-05-23T14:22:26.221Z,2.53
2018-05-23T14:25:35.682Z,2.83
2018-05-23T14:28:45.936Z,2.60
2018-05-23T14:31:55.374Z,2.70
2018-05-23T14:35:05.773Z,2.50
2018-05-23T14:38:16.209Z,3.00
2018-05-23T14:41:25.519Z,2.70
2018-05-23T14:44:34.883Z,2.78
2018-05-23T14:47:45.143Z,2.10
2018-05-23T14:50:54.794Z,2.60
2018-05-23T14:54:04.303Z,2.80
2018-05-23T14:57:14.480Z,2.35
2018-05-23T15:00:24.005Z,2.17
2018-05-23T15:03:34.042Z,2.60
2018-05-23T15:06:43.487Z,2.67
2018-05-23T15:09:53.161Z,2.78
2018-05-23T15:13:02.583Z,2.50
2018-05-23T15:16:13.738Z,2.45
2018-05-23T15:19:23.509Z,2.55
2018-05-23T15:22:33.821Z,2.22
2018-05-23T15:25:43.085Z,2.12
2018-05-23T15:28:53.059Z,2.28
2018-05-23T15:32:02.405Z,1.98
2018-05-23T15:35:11.931Z,2.33
2018-05-23T15:38:21.411Z,1.90
2018-05-23T15:41:31.545Z,2.55
2018-05-23T15:44:41.036Z,2.00
2018-05-23T15:47:50.565Z,2.40
2018-05-23T15:51:01.145Z,2.40
2018-05-23T15:54:11.827Z,2.42
2018-05-23T15:57:21.473Z,2.05
2018-05-23T16:00:31.448Z,2.65
2018-05-23T16:03:44.932Z,2.12
2018-05-23T16:06:54.339Z,2.70
2018-05-23T16:10:03.912Z,2.40
2018-05-23T16:13:13.645Z,2.70
2018-05-23T16:16:23.220Z,2.45
2018-05-23T16:19:32.847Z,2.47
2018-05-23T16:22:42.947Z,2.45
2018-05-23T16:25:52.553Z,2.30
2018-05-23T16:29:02.113Z,2.80
2018-05-23T16:32:13.724Z,2.40
2018-05-23T16:35:24.046Z,2.30
2018-05-23T16:38:33.374Z,2.30
2018-05-23T16:41:42.723Z,2.42
2018-05-23T16:44:52.096Z,2.53
2018-05-23T16:48:01.513Z,2.60
2018-05-23T16:51:11.050Z,2.83
2018-05-23T16:54:20.991Z,2.30
2018-05-23T16:57:30.478Z,2.30
2018-05-23T17:00:40.850Z,2.58
2018-05-23T17:03:50.602Z,2.50
2018-05-23T17:06:59.909Z,2.35
2018-05-23T17:10:09.365Z,2.00
2018-05-23T17:13:18.786Z,2.35
2018-05-23T17:16:28.158Z,2.20
2018-05-23T17:19:37.861Z,2.20
2018-05-23T17:22:48.201Z,2.25
2018-05-23T17:25:58.384Z,2.45
2018-05-23T17:29:07.924Z,2.55
2018-05-23T17:32:17.792Z,2.15
2018-05-23T17:35:28.464Z,1.92
2018-05-23T17:38:37.890Z,2.72
2018-05-23T17:41:48.137Z,2.25
2018-05-23T17:44:57.718Z,2.47
2018-05-23T17:48:07.053Z,2.12
2018-05-23T17:51:17.933Z,2.20
2018-05-23T17:54:28.141Z,2.40
2018-05-23T17:57:38.331Z,2.45
2018-05-23T18:00:48.586Z,2.58
2018-05-23T18:03:57.897Z,2.45
2018-05-23T18:07:08.414Z,2.22
2018-05-23T18:10:18.552Z,2.47
2018-05-23T18:13:28.783Z,3.00
2018-05-23T18:16:38.176Z,2.17
2018-05-23T18:19:49.283Z,2.50
2018-05-23T18:22:59.133Z,2.20
2018-05-23T18:26:09.045Z,2.17
2018-05-23T18:29:20.075Z,2.05
2018-05-23T18:32:29.654Z,1.95
2018-05-23T18:35:39.557Z,2.53
2018-05-23T18:38:49.627Z,2.20
2018-05-23T18:41:58.980Z,2.30
2018-05-23T18:45:09.250Z,2.75
2018-05-23T18:48:20.773Z,2.72
2018-05-23T18:51:30.645Z,2.72
2018-05-23T18:54:40.471Z,2.42
2018-05-23T18:57:50.790Z,3.00
2018-05-23T19:01:01.021Z,2.40
2018-05-23T19:04:10.554Z,2.22
2018-05-23T19:07:22.733Z,3.28
2018-05-23T19:10:32.272Z,2.72
2018-05-23T19:13:42.363Z,2.92
2018-05-23T19:16:52.089Z,2.70
2018-05-23T19:20:02.291Z,2.58
2018-05-23T19:23:11.760Z,2.90
2018-05-23T19:26:22.779Z,2.87
2018-05-23T19:29:32.206Z,2.50
2018-05-23T19:32:42.461Z,2.70
2018-05-23T19:35:51.951Z,2.60
2018-05-23T19:39:01.830Z,2.45
2018-05-23T19:42:12.678Z,3.00
2018-05-23T19:45:23.828Z,2.70
2018-05-23T19:48:34.064Z,2.85
2018-05-23T19:51:44.309Z,2.90
2018-05-23T19:54:53.871Z,3.30
2018-05-23T19:58:03.929Z,2.85
2018-05-23T20:01:13.990Z,2.80
2018-05-23T20:04:24.717Z,2.70
2018-05-23T20:07:34.200Z,2.70
2018-05-23T20:10:44.450Z,3.03
2018-05-23T20:13:54.812Z,2.87
2018-05-23T20:17:05.136Z,3.40
2018-05-23T20:20:14.717Z,2.60
2018-05-23T20:23:25.904Z,2.72
2018-05-23T20:26:35.552Z,2.70
2018-05-23T20:29:44.976Z,3.08
2018-05-23T20:32:54.779Z,2.42
2018-05-23T20:36:05.015Z,2.85
2018-05-23T20:39:15.249Z,2.95
2018-05-23T20:42:27.054Z,3.15
2018-05-23T20:45:36.466Z,3.00
2018-05-23T20:48:45.960Z,3.15
2018-05-23T20:51:55.581Z,2.75
2018-05-23T20:55:05.357Z,2.83
2018-05-23T20:58:15.768Z,3.12
2018-05-23T21:01:27.809Z,2.90
2018-05-23T21:04:37.374Z,3.08
2018-05-23T21:07:47.175Z,2.80
2018-05-23T21:10:58.368Z,3.10
2018-05-23T21:14:08.652Z,3.33
2018-05-23T21:17:18.006Z,3.08
2018-05-23T21:20:28.950Z,4.55
2018-05-23T21:23:38.888Z,2.85
2018-05-23T21:26:48.872Z,2.85
2018-05-23T21:29:59.054Z,2.53
2018-05-23T21:33:09.020Z,2.70
2018-05-23T21:36:23.317Z,2.33
2018-05-23T21:39:33.513Z,2.28
2018-05-23T21:42:43.964Z,2.00
2018-05-23T21:45:54.354Z,2.12
2018-05-23T21:49:03.693Z,2.10
2018-05-23T21:52:13.704Z,2.35
2018-05-23T21:55:23.229Z,2.30
2018-05-23T21:58:33.507Z,2.58
2018-05-23T22:01:42.953Z,2.20
2018-05-23T22:04:56.547Z,2.05
2018-05-23T22:08:05.969Z,2.20
2018-05-23T22:11:15.558Z,2.10
2018-05-23T22:14:24.891Z,2.28
2018-05-23T22:17:35.057Z,1.80
2018-05-23T22:20:44.378Z,2.00
2018-05-23T22:23:54.647Z,1.85
2018-05-23T22:27:04.171Z,2.20
2018-05-23T22:30:13.757Z,1.85
2018-05-23T22:33:23.910Z,1.90
2018-05-23T22:36:34.213Z,2.00
2018-05-23T22:39:43.694Z,1.50
2018-05-23T22:42:53.900Z,2.08
2018-05-23T22:46:03.486Z,1.73
2018-05-23T22:49:13.071Z,1.50
2018-05-23T22:52:23.152Z,1.92
2018-05-23T22:55:33.989Z,1.58
2018-05-23T22:58:43.935Z,1.50
2018-05-23T23:01:54.248Z,1.58
2018-05-23T23:05:03.951Z,1.37
2018-05-23T23:08:14.339Z,1.20
2018-05-23T23:11:24.142Z,1.40
2018-05-23T23:14:34.406Z,1.42
2018-05-23T23:17:44.307Z,1.30
2018-05-23T23:20:53.651Z,1.60
2018-05-23T23:24:03.428Z,1.42
2018-05-23T23:27:13.252Z,1.40
2018-05-23T23:30:22.624Z,1.12
2018-05-23T23:33:32.452Z,1.50
2018-05-23T23:36:42.028Z,1.17
2018-05-23T23:39:52.266Z,1.35
2018-05-23T23:43:01.733Z,1.23
2018-05-23T23:46:12.583Z,1.50
2018-05-23T23:49:22.047Z,1.20
2018-05-23T23:52:31.318Z,1.10
2018-05-23T23:55:42.449Z,1.50
2018-05-23T23:58:51.920Z,1.10
